sensor_id;sensor_type;location;lat;lon;timestamp;temperature;humidity
1578;DHT22;57623;53.608;10.004;2024-02-04T00:00:09;6.90;99.90
1578;DHT22;57623;53.608;10.004;2024-02-04T00:02:40;6.90;99.90
1578;DHT22;57623;53.608;10.004;2024-02-04T00:05:09;6.90;99.90
1578;DHT22;57623;53.608;10.004;2024-02-04T00:07:37;6.90;99.90
1578;DHT22;57623;53.608;10.004;2024-02-04T00:10:05;6.90;99.90
1578;DHT22;57623;53.608;10.004;2024-02-04T00:12:34;6.90;99.90
1578;DHT22;57623;53.608;10.004;2024-02-04T00:15:02;6.90;99.90
1578;DHT22;57623;53.608;10.004;2024-02-04T00:17:31;6.90;99.90
1578;DHT22;57623;53.608;10.004;2024-02-04T00:20:00;6.90;99.90
1578;DHT22;57623;53.608;10.004;2024-02-04T00:22:31;6.90;99.90
1578;DHT22;57623;53.608;10.004;2024-02-04T00:25:00;6.90;99.90
1578;DHT22;57623;53.608;10.004;2024-02-04T00:27:32;6.90;99.90
1578;DHT22;57623;53.608;10.004;2024-02-04T00:30:00;6.90;99.90
1578;DHT22;57623;53.608;10.004;2024-02-04T00:32:28;6.80;99.90
1578;DHT22;57623;53.608;10.004;2024-02-04T00:34:56;6.80;99.90
1578;DHT22;57623;53.608;10.004;2024-02-04T00:37:24;6.80;99.90
1578;DHT22;57623;53.608;10.004;2024-02-04T00:39:54;6.80;99.90
1578;DHT22;57623;53.608;10.004;2024-02-04T00:42:22;6.80;99.90
1578;DHT22;57623;53.608;10.004;2024-02-04T00:44:50;6.80;99.90
1578;DHT22;57623;53.608;10.004;2024-02-04T00:47:18;6.80;99.90
1578;DHT22;57623;53.608;10.004;2024-02-04T00:49:46;6.80;99.90
1578;DHT22;57623;53.608;10.004;2024-02-04T00:52:14;6.80;99.90
1578;DHT22;57623;53.608;10.004;2024-02-04T00:54:42;6.80;99.90
1578;DHT22;57623;53.608;10.004;2024-02-04T00:57:11;6.80;99.90
1578;DHT22;57623;53.608;10.004;2024-02-04T00:59:39;6.80;99.90
1578;DHT22;57623;53.608;10.004;2024-02-04T01:02:07;6.80;99.90
1578;DHT22;57623;53.608;10.004;2024-02-04T01:04:35;6.80;99.90
1578;DHT22;57623;53.608;10.004;2024-02-04T01:07:03;6.80;99.90
1578;DHT22;57623;53.608;10.004;2024-02-04T01:09:31;6.80;99.90
1578;DHT22;57623;53.608;10.004;2024-02-04T01:11:59;6.80;99.90
1578;DHT22;57623;53.608;10.004;2024-02-04T01:14:29;6.80;99.90
1578;DHT22;57623;53.608;10.004;2024-02-04T01:16:57;6.80;99.90
1578;DHT22;57623;53.608;10.004;2024-02-04T01:19:25;6.80;99.90
1578;DHT22;57623;53.608;10.004;2024-02-04T01:21:53;6.90;99.90
1578;DHT22;57623;53.608;10.004;2024-02-04T01:24:21;6.90;99.90
1578;DHT22;57623;53.608;10.004;2024-02-04T01:26:49;6.90;99.90
1578;DHT22;57623;53.608;10.004;2024-02-04T01:29:17;6.90;99.90
1578;DHT22;57623;53.608;10.004;2024-02-04T01:31:46;6.90;99.90
1578;DHT22;57623;53.608;10.004;2024-02-04T01:34:14;6.90;99.90
1578;DHT22;57623;53.608;10.004;2024-02-04T01:36:42;6.90;99.90
1578;DHT22;57623;53.608;10.004;2024-02-04T01:39:10;7.00;99.90
1578;DHT22;57623;53.608;10.004;2024-02-04T01:41:38;7.00;99.90
1578;DHT22;57623;53.608;10.004;2024-02-04T01:44:06;7.00;99.90
1578;DHT22;57623;53.608;10.004;2024-02-04T01:46:34;7.00;99.90
1578;DHT22;57623;53.608;10.004;2024-02-04T01:49:04;7.00;99.90
1578;DHT22;57623;53.608;10.004;2024-02-04T01:51:32;7.00;99.90
1578;DHT22;57623;53.608;10.004;2024-02-04T01:54:00;7.00;99.90
1578;DHT22;57623;53.608;10.004;2024-02-04T01:56:29;7.10;99.90
1578;DHT22;57623;53.608;10.004;2024-02-04T01:58:58;7.10;99.90
1578;DHT22;57623;53.608;10.004;2024-02-04T02:01:27;7.20;99.90
1578;DHT22;57623;53.608;10.004;2024-02-04T02:03:56;7.10;99.90
1578;DHT22;57623;53.608;10.004;2024-02-04T02:06:26;7.10;99.90
1578;DHT22;57623;53.608;10.004;2024-02-04T02:08:55;7.20;99.90
1578;DHT22;57623;53.608;10.004;2024-02-04T02:11:32;7.20;99.90
1578;DHT22;57623;53.608;10.004;2024-02-04T02:14:04;7.20;99.90
1578;DHT22;57623;53.608;10.004;2024-02-04T02:16:34;7.30;99.90
1578;DHT22;57623;53.608;10.004;2024-02-04T02:19:16;7.20;99.90
1578;DHT22;57623;53.608;10.004;2024-02-04T02:21:56;7.20;99.90
1578;DHT22;57623;53.608;10.004;2024-02-04T02:24:32;7.30;99.90
1578;DHT22;57623;53.608;10.004;2024-02-04T02:27:00;7.30;99.90
1578;DHT22;57623;53.608;10.004;2024-02-04T02:29:28;7.30;99.90
1578;DHT22;57623;53.608;10.004;2024-02-04T02:31:56;7.30;99.90
1578;DHT22;57623;53.608;10.004;2024-02-04T02:34:25;7.30;99.90
1578;DHT22;57623;53.608;10.004;2024-02-04T02:37:11;7.30;99.90
1578;DHT22;57623;53.608;10.004;2024-02-04T02:39:52;7.30;99.90
1578;DHT22;57623;53.608;10.004;2024-02-04T02:42:26;7.20;99.90
1578;DHT22;57623;53.608;10.004;2024-02-04T02:44:56;7.20;99.90
1578;DHT22;57623;53.608;10.004;2024-02-04T02:47:25;7.20;99.90
1578;DHT22;57623;53.608;10.004;2024-02-04T02:49:54;7.30;99.90
1578;DHT22;57623;53.608;10.004;2024-02-04T02:52:23;7.30;99.90
1578;DHT22;57623;53.608;10.004;2024-02-04T02:54:52;7.20;99.90
1578;DHT22;57623;53.608;10.004;2024-02-04T02:57:20;7.20;99.90
1578;DHT22;57623;53.608;10.004;2024-02-04T02:59:48;7.20;99.90
1578;DHT22;57623;53.608;10.004;2024-02-04T03:02:16;7.20;99.90
1578;DHT22;57623;53.608;10.004;2024-02-04T03:04:44;7.10;99.90
1578;DHT22;57623;53.608;10.004;2024-02-04T03:07:12;7.10;99.90
1578;DHT22;57623;53.608;10.004;2024-02-04T03:09:40;7.10;99.90
1578;DHT22;57623;53.608;10.004;2024-02-04T03:12:10;7.10;99.90
1578;DHT22;57623;53.608;10.004;2024-02-04T03:14:38;7.10;99.90
1578;DHT22;57623;53.608;10.004;2024-02-04T03:17:06;7.10;99.90
1578;DHT22;57623;53.608;10.004;2024-02-04T03:19:34;7.10;99.90
1578;DHT22;57623;53.608;10.004;2024-02-04T03:22:02;7.10;99.90
1578;DHT22;57623;53.608;10.004;2024-02-04T03:24:30;7.10;99.90
1578;DHT22;57623;53.608;10.004;2024-02-04T03:26:58;7.10;99.90
1578;DHT22;57623;53.608;10.004;2024-02-04T03:29:27;7.10;99.90
1578;DHT22;57623;53.608;10.004;2024-02-04T03:31:56;7.10;99.90
1578;DHT22;57623;53.608;10.004;2024-02-04T03:34:24;7.10;99.90
1578;DHT22;57623;53.608;10.004;2024-02-04T03:36:52;7.00;99.90
1578;DHT22;57623;53.608;10.004;2024-02-04T03:39:21;7.00;99.90
1578;DHT22;57623;53.608;10.004;2024-02-04T03:41:49;7.00;99.90
1578;DHT22;57623;53.608;10.004;2024-02-04T03:44:17;7.00;99.90
1578;DHT22;57623;53.608;10.004;2024-02-04T03:46:49;7.00;99.90
1578;DHT22;57623;53.608;10.004;2024-02-04T03:49:17;7.00;99.90
1578;DHT22;57623;53.608;10.004;2024-02-04T03:51:48;7.00;99.90
1578;DHT22;57623;53.608;10.004;2024-02-04T03:54:16;7.00;99.90
1578;DHT22;57623;53.608;10.004;2024-02-04T03:56:46;6.90;99.90
1578;DHT22;57623;53.608;10.004;2024-02-04T03:59:14;6.90;99.90
1578;DHT22;57623;53.608;10.004;2024-02-04T04:01:48;6.80;99.90
1578;DHT22;57623;53.608;10.004;2024-02-04T04:04:17;6.90;99.90
1578;DHT22;57623;53.608;10.004;2024-02-04T04:06:45;6.90;99.90
1578;DHT22;57623;53.608;10.004;2024-02-04T04:09:14;6.80;99.90
1578;DHT22;57623;53.608;10.004;2024-02-04T04:11:42;6.80;99.90
1578;DHT22;57623;53.608;10.004;2024-02-04T04:14:10;6.80;99.90
1578;DHT22;57623;53.608;10.004;2024-02-04T04:16:38;6.80;99.90
1578;DHT22;57623;53.608;10.004;2024-02-04T04:19:07;6.80;99.90
1578;DHT22;57623;53.608;10.004;2024-02-04T04:21:35;6.80;99.90
1578;DHT22;57623;53.608;10.004;2024-02-04T04:24:05;6.80;99.90
1578;DHT22;57623;53.608;10.004;2024-02-04T04:26:33;6.80;99.90
1578;DHT22;57623;53.608;10.004;2024-02-04T04:29:01;6.80;99.90
1578;DHT22;57623;53.608;10.004;2024-02-04T04:31:30;6.70;99.90
1578;DHT22;57623;53.608;10.004;2024-02-04T04:33:58;6.70;99.90
1578;DHT22;57623;53.608;10.004;2024-02-04T04:36:28;6.70;99.90
1578;DHT22;57623;53.608;10.004;2024-02-04T04:38:56;6.70;99.90
1578;DHT22;57623;53.608;10.004;2024-02-04T04:41:24;6.70;99.90
1578;DHT22;57623;53.608;10.004;2024-02-04T04:43:52;6.70;99.90
1578;DHT22;57623;53.608;10.004;2024-02-04T04:46:20;6.70;99.90
1578;DHT22;57623;53.608;10.004;2024-02-04T04:48:48;6.70;99.90
1578;DHT22;57623;53.608;10.004;2024-02-04T04:51:17;6.70;99.90
1578;DHT22;57623;53.608;10.004;2024-02-04T04:53:46;6.70;99.90
1578;DHT22;57623;53.608;10.004;2024-02-04T04:56:14;6.80;99.90
1578;DHT22;57623;53.608;10.004;2024-02-04T04:58:42;6.70;99.90
1578;DHT22;57623;53.608;10.004;2024-02-04T05:01:10;6.70;99.90
1578;DHT22;57623;53.608;10.004;2024-02-04T05:03:39;6.70;99.90
1578;DHT22;57623;53.608;10.004;2024-02-04T05:06:07;6.70;99.90
1578;DHT22;57623;53.608;10.004;2024-02-04T05:08:35;6.70;99.90
1578;DHT22;57623;53.608;10.004;2024-02-04T05:11:05;6.70;99.90
1578;DHT22;57623;53.608;10.004;2024-02-04T05:13:33;6.70;99.90
1578;DHT22;57623;53.608;10.004;2024-02-04T05:16:01;6.70;99.90
1578;DHT22;57623;53.608;10.004;2024-02-04T05:18:29;6.60;99.90
1578;DHT22;57623;53.608;10.004;2024-02-04T05:20:57;6.60;99.90
1578;DHT22;57623;53.608;10.004;2024-02-04T05:23:25;6.60;99.90
1578;DHT22;57623;53.608;10.004;2024-02-04T05:25:53;6.60;99.90
1578;DHT22;57623;53.608;10.004;2024-02-04T05:28:22;6.50;99.90
1578;DHT22;57623;53.608;10.004;2024-02-04T05:30:50;6.60;99.90
1578;DHT22;57623;53.608;10.004;2024-02-04T05:33:18;6.50;99.90
1578;DHT22;57623;53.608;10.004;2024-02-04T05:35:46;6.50;99.90
1578;DHT22;57623;53.608;10.004;2024-02-04T05:38:15;6.50;99.90
1578;DHT22;57623;53.608;10.004;2024-02-04T05:40:43;6.50;99.90
1578;DHT22;57623;53.608;10.004;2024-02-04T05:43:11;6.50;99.90
1578;DHT22;57623;53.608;10.004;2024-02-04T05:45:41;6.40;99.90
1578;DHT22;57623;53.608;10.004;2024-02-04T05:48:09;6.50;99.90
1578;DHT22;57623;53.608;10.004;2024-02-04T05:50:37;6.50;99.90
1578;DHT22;57623;53.608;10.004;2024-02-04T05:53:06;6.50;99.90
1578;DHT22;57623;53.608;10.004;2024-02-04T05:55:33;6.50;99.90
1578;DHT22;57623;53.608;10.004;2024-02-04T05:58:02;6.50;99.90
1578;DHT22;57623;53.608;10.004;2024-02-04T06:00:30;6.50;99.90
1578;DHT22;57623;53.608;10.004;2024-02-04T06:03:00;6.50;99.90
1578;DHT22;57623;53.608;10.004;2024-02-04T06:05:28;6.50;99.90
1578;DHT22;57623;53.608;10.004;2024-02-04T06:07:56;6.50;99.90
1578;DHT22;57623;53.608;10.004;2024-02-04T06:10:24;6.50;99.90
1578;DHT22;57623;53.608;10.004;2024-02-04T06:12:52;6.50;99.90
1578;DHT22;57623;53.608;10.004;2024-02-04T06:15:20;6.40;99.90
1578;DHT22;57623;53.608;10.004;2024-02-04T06:17:48;6.40;99.90
1578;DHT22;57623;53.608;10.004;2024-02-04T06:20:18;6.50;99.90
1578;DHT22;57623;53.608;10.004;2024-02-04T06:22:45;6.50;99.90
1578;DHT22;57623;53.608;10.004;2024-02-04T06:25:14;6.50;99.90
1578;DHT22;57623;53.608;10.004;2024-02-04T06:27:42;6.50;99.90
1578;DHT22;57623;53.608;10.004;2024-02-04T06:30:11;6.60;99.90
1578;DHT22;57623;53.608;10.004;2024-02-04T06:32:39;6.60;99.90
1578;DHT22;57623;53.608;10.004;2024-02-04T06:35:07;6.50;99.90
1578;DHT22;57623;53.608;10.004;2024-02-04T06:37:37;6.50;99.90
1578;DHT22;57623;53.608;10.004;2024-02-04T06:40:06;6.50;99.90
1578;DHT22;57623;53.608;10.004;2024-02-04T06:42:34;6.50;99.90
1578;DHT22;57623;53.608;10.004;2024-02-04T06:45:03;6.50;99.90
1578;DHT22;57623;53.608;10.004;2024-02-04T06:47:31;6.50;99.90
1578;DHT22;57623;53.608;10.004;2024-02-04T06:50:00;6.60;99.90
1578;DHT22;57623;53.608;10.004;2024-02-04T06:52:30;6.50;99.90
1578;DHT22;57623;53.608;10.004;2024-02-04T06:54:59;6.60;99.90
1578;DHT22;57623;53.608;10.004;2024-02-04T06:57:27;6.60;99.90
1578;DHT22;57623;53.608;10.004;2024-02-04T06:59:55;6.50;99.90
1578;DHT22;57623;53.608;10.004;2024-02-04T07:02:23;6.50;99.90
1578;DHT22;57623;53.608;10.004;2024-02-04T07:04:52;6.50;99.90
1578;DHT22;57623;53.608;10.004;2024-02-04T07:07:21;6.50;99.90
1578;DHT22;57623;53.608;10.004;2024-02-04T07:09:49;6.60;99.90
1578;DHT22;57623;53.608;10.004;2024-02-04T07:12:18;6.50;99.90
1578;DHT22;57623;53.608;10.004;2024-02-04T07:14:46;6.50;99.90
1578;DHT22;57623;53.608;10.004;2024-02-04T07:17:14;6.50;99.90
1578;DHT22;57623;53.608;10.004;2024-02-04T07:19:42;6.50;99.90
1578;DHT22;57623;53.608;10.004;2024-02-04T07:22:11;6.50;99.90
1578;DHT22;57623;53.608;10.004;2024-02-04T07:24:39;6.50;99.90
1578;DHT22;57623;53.608;10.004;2024-02-04T07:27:07;6.60;99.90
1578;DHT22;57623;53.608;10.004;2024-02-04T07:29:36;6.50;99.90
1578;DHT22;57623;53.608;10.004;2024-02-04T07:32:04;6.50;99.90
1578;DHT22;57623;53.608;10.004;2024-02-04T07:34:32;6.60;99.90
1578;DHT22;57623;53.608;10.004;2024-02-04T07:37:01;6.50;99.90
1578;DHT22;57623;53.608;10.004;2024-02-04T07:39:29;6.60;99.90
1578;DHT22;57623;53.608;10.004;2024-02-04T07:41:58;6.60;99.90
1578;DHT22;57623;53.608;10.004;2024-02-04T07:44:28;6.50;99.90
1578;DHT22;57623;53.608;10.004;2024-02-04T07:46:57;6.60;99.90
1578;DHT22;57623;53.608;10.004;2024-02-04T07:49:25;6.60;99.90
1578;DHT22;57623;53.608;10.004;2024-02-04T07:51:53;6.60;99.90
1578;DHT22;57623;53.608;10.004;2024-02-04T07:54:21;6.60;99.90
1578;DHT22;57623;53.608;10.004;2024-02-04T07:56:49;6.60;99.90
1578;DHT22;57623;53.608;10.004;2024-02-04T07:59:17;6.60;99.90
1578;DHT22;57623;53.608;10.004;2024-02-04T08:01:45;6.60;99.90
1578;DHT22;57623;53.608;10.004;2024-02-04T08:04:15;6.60;99.90
1578;DHT22;57623;53.608;10.004;2024-02-04T08:06:43;6.70;99.90
1578;DHT22;57623;53.608;10.004;2024-02-04T08:09:11;6.70;99.90
1578;DHT22;57623;53.608;10.004;2024-02-04T08:11:39;6.70;99.90
1578;DHT22;57623;53.608;10.004;2024-02-04T08:14:07;6.70;99.90
1578;DHT22;57623;53.608;10.004;2024-02-04T08:16:35;6.70;99.90
1578;DHT22;57623;53.608;10.004;2024-02-04T08:19:03;6.80;99.90
1578;DHT22;57623;53.608;10.004;2024-02-04T08:21:34;6.80;99.90
1578;DHT22;57623;53.608;10.004;2024-02-04T08:24:03;6.80;99.90
1578;DHT22;57623;53.608;10.004;2024-02-04T08:26:31;6.80;99.90
1578;DHT22;57623;53.608;10.004;2024-02-04T08:28:59;6.90;99.90
1578;DHT22;57623;53.608;10.004;2024-02-04T08:31:29;6.90;99.90
1578;DHT22;57623;53.608;10.004;2024-02-04T08:33:57;6.90;99.90
1578;DHT22;57623;53.608;10.004;2024-02-04T08:36:25;6.90;99.90
1578;DHT22;57623;53.608;10.004;2024-02-04T08:38:55;6.90;99.90
1578;DHT22;57623;53.608;10.004;2024-02-04T08:41:23;6.90;99.90
1578;DHT22;57623;53.608;10.004;2024-02-04T08:43:51;6.90;99.90
1578;DHT22;57623;53.608;10.004;2024-02-04T08:46:19;6.90;99.90
1578;DHT22;57623;53.608;10.004;2024-02-04T08:48:47;7.00;99.90
1578;DHT22;57623;53.608;10.004;2024-02-04T08:51:15;7.00;99.90
1578;DHT22;57623;53.608;10.004;2024-02-04T08:53:45;7.00;99.90
1578;DHT22;57623;53.608;10.004;2024-02-04T08:56:14;7.00;99.90
1578;DHT22;57623;53.608;10.004;2024-02-04T08:58:43;7.00;99.90
1578;DHT22;57623;53.608;10.004;2024-02-04T09:01:11;7.00;99.90
1578;DHT22;57623;53.608;10.004;2024-02-04T09:03:39;7.10;99.90
1578;DHT22;57623;53.608;10.004;2024-02-04T09:06:07;7.10;99.90
1578;DHT22;57623;53.608;10.004;2024-02-04T09:08:35;7.10;99.90
1578;DHT22;57623;53.608;10.004;2024-02-04T09:11:04;7.20;99.90
1578;DHT22;57623;53.608;10.004;2024-02-04T09:13:34;7.20;99.90
1578;DHT22;57623;53.608;10.004;2024-02-04T09:19:50;7.20;99.90
1578;DHT22;57623;53.608;10.004;2024-02-04T09:22:18;7.20;99.90
1578;DHT22;57623;53.608;10.004;2024-02-04T09:24:46;7.20;99.90
1578;DHT22;57623;53.608;10.004;2024-02-04T09:27:14;7.20;99.90
1578;DHT22;57623;53.608;10.004;2024-02-04T09:29:44;7.30;99.90
1578;DHT22;57623;53.608;10.004;2024-02-04T09:32:12;7.30;99.90
1578;DHT22;57623;53.608;10.004;2024-02-04T09:34:44;7.30;99.90
1578;DHT22;57623;53.608;10.004;2024-02-04T09:37:13;7.30;99.90
1578;DHT22;57623;53.608;10.004;2024-02-04T09:39:41;7.30;99.90
1578;DHT22;57623;53.608;10.004;2024-02-04T09:42:10;7.30;99.90
1578;DHT22;57623;53.608;10.004;2024-02-04T09:44:47;7.40;99.90
1578;DHT22;57623;53.608;10.004;2024-02-04T09:47:15;7.40;99.90
1578;DHT22;57623;53.608;10.004;2024-02-04T09:49:43;7.40;99.90
1578;DHT22;57623;53.608;10.004;2024-02-04T09:52:13;7.50;99.90
1578;DHT22;57623;53.608;10.004;2024-02-04T09:54:44;7.50;99.90
1578;DHT22;57623;53.608;10.004;2024-02-04T09:57:13;7.50;99.90
1578;DHT22;57623;53.608;10.004;2024-02-04T09:59:43;7.50;99.90
1578;DHT22;57623;53.608;10.004;2024-02-04T10:02:15;7.50;99.90
1578;DHT22;57623;53.608;10.004;2024-02-04T10:04:47;7.50;99.90
1578;DHT22;57623;53.608;10.004;2024-02-04T10:07:16;7.50;99.90
1578;DHT22;57623;53.608;10.004;2024-02-04T10:09:45;7.50;99.90
1578;DHT22;57623;53.608;10.004;2024-02-04T10:12:13;7.60;99.90
1578;DHT22;57623;53.608;10.004;2024-02-04T10:14:41;7.60;99.90
1578;DHT22;57623;53.608;10.004;2024-02-04T10:17:09;7.60;99.90
1578;DHT22;57623;53.608;10.004;2024-02-04T10:19:39;7.60;99.90
1578;DHT22;57623;53.608;10.004;2024-02-04T10:22:07;7.70;99.90
1578;DHT22;57623;53.608;10.004;2024-02-04T10:24:35;7.70;99.90
1578;DHT22;57623;53.608;10.004;2024-02-04T10:27:04;7.60;99.90
1578;DHT22;57623;53.608;10.004;2024-02-04T10:29:32;7.60;99.90
1578;DHT22;57623;53.608;10.004;2024-02-04T10:32:01;7.60;99.90
1578;DHT22;57623;53.608;10.004;2024-02-04T10:34:29;7.60;99.90
1578;DHT22;57623;53.608;10.004;2024-02-04T10:36:59;7.60;99.90
1578;DHT22;57623;53.608;10.004;2024-02-04T10:39:27;7.70;99.90
1578;DHT22;57623;53.608;10.004;2024-02-04T10:41:56;7.70;99.90
1578;DHT22;57623;53.608;10.004;2024-02-04T10:44:27;7.70;99.90
1578;DHT22;57623;53.608;10.004;2024-02-04T10:46:56;7.70;99.90
1578;DHT22;57623;53.608;10.004;2024-02-04T10:49:26;7.70;99.90
1578;DHT22;57623;53.608;10.004;2024-02-04T10:51:56;7.80;99.90
1578;DHT22;57623;53.608;10.004;2024-02-04T10:54:28;7.80;99.90
1578;DHT22;57623;53.608;10.004;2024-02-04T10:57:04;7.80;99.90
1578;DHT22;57623;53.608;10.004;2024-02-04T10:59:33;7.80;99.90
1578;DHT22;57623;53.608;10.004;2024-02-04T11:02:02;7.90;99.90
1578;DHT22;57623;53.608;10.004;2024-02-04T11:04:33;7.90;99.90
1578;DHT22;57623;53.608;10.004;2024-02-04T11:07:03;7.90;99.90
1578;DHT22;57623;53.608;10.004;2024-02-04T11:09:33;8.00;99.90
1578;DHT22;57623;53.608;10.004;2024-02-04T11:12:04;8.00;99.90
1578;DHT22;57623;53.608;10.004;2024-02-04T11:14:35;8.10;99.90
1578;DHT22;57623;53.608;10.004;2024-02-04T11:20:23;8.00;99.90
1578;DHT22;57623;53.608;10.004;2024-02-04T11:25:58;8.00;99.90
1578;DHT22;57623;53.608;10.004;2024-02-04T11:28:26;8.10;99.90
1578;DHT22;57623;53.608;10.004;2024-02-04T11:30:55;8.10;99.90
1578;DHT22;57623;53.608;10.004;2024-02-04T11:33:24;8.10;99.90
1578;DHT22;57623;53.608;10.004;2024-02-04T11:35:59;8.20;99.90
1578;DHT22;57623;53.608;10.004;2024-02-04T11:38:31;8.20;99.90
1578;DHT22;57623;53.608;10.004;2024-02-04T11:41:02;8.10;99.90
1578;DHT22;57623;53.608;10.004;2024-02-04T11:43:33;8.20;99.90
1578;DHT22;57623;53.608;10.004;2024-02-04T11:46:03;8.20;99.90
1578;DHT22;57623;53.608;10.004;2024-02-04T11:48:34;8.20;99.90
1578;DHT22;57623;53.608;10.004;2024-02-04T11:51:04;8.30;99.90
1578;DHT22;57623;53.608;10.004;2024-02-04T11:53:35;8.30;99.90
1578;DHT22;57623;53.608;10.004;2024-02-04T11:56:05;8.30;99.90
1578;DHT22;57623;53.608;10.004;2024-02-04T11:58:34;8.40;99.90
1578;DHT22;57623;53.608;10.004;2024-02-04T12:01:03;8.40;99.90
1578;DHT22;57623;53.608;10.004;2024-02-04T12:03:32;8.40;99.90
1578;DHT22;57623;53.608;10.004;2024-02-04T12:06:00;8.50;99.90
1578;DHT22;57623;53.608;10.004;2024-02-04T12:08:30;8.40;99.90
1578;DHT22;57623;53.608;10.004;2024-02-04T12:11:00;8.50;99.90
1578;DHT22;57623;53.608;10.004;2024-02-04T12:13:31;8.50;99.90
1578;DHT22;57623;53.608;10.004;2024-02-04T12:16:07;8.60;99.90
1578;DHT22;57623;53.608;10.004;2024-02-04T12:18:36;8.60;99.90
1578;DHT22;57623;53.608;10.004;2024-02-04T12:21:15;8.60;99.90
1578;DHT22;57623;53.608;10.004;2024-02-04T12:23:43;8.60;99.90
1578;DHT22;57623;53.608;10.004;2024-02-04T12:26:13;8.70;99.90
1578;DHT22;57623;53.608;10.004;2024-02-04T12:28:43;8.60;99.90
1578;DHT22;57623;53.608;10.004;2024-02-04T12:31:16;8.70;99.90
1578;DHT22;57623;53.608;10.004;2024-02-04T12:33:52;8.70;99.90
1578;DHT22;57623;53.608;10.004;2024-02-04T12:36:22;8.70;99.90
1578;DHT22;57623;53.608;10.004;2024-02-04T12:38:53;8.70;99.90
1578;DHT22;57623;53.608;10.004;2024-02-04T12:41:22;8.70;99.90
1578;DHT22;57623;53.608;10.004;2024-02-04T12:43:53;8.70;99.90
1578;DHT22;57623;53.608;10.004;2024-02-04T12:46:22;8.80;99.90
1578;DHT22;57623;53.608;10.004;2024-02-04T12:48:54;8.80;99.90
1578;DHT22;57623;53.608;10.004;2024-02-04T12:51:25;8.90;99.90
1578;DHT22;57623;53.608;10.004;2024-02-04T12:54:07;8.90;99.90
1578;DHT22;57623;53.608;10.004;2024-02-04T12:56:44;8.90;99.90
1578;DHT22;57623;53.608;10.004;2024-02-04T12:59:23;8.90;99.90
1578;DHT22;57623;53.608;10.004;2024-02-04T13:01:53;8.90;99.90
1578;DHT22;57623;53.608;10.004;2024-02-04T13:04:22;8.90;99.90
1578;DHT22;57623;53.608;10.004;2024-02-04T13:06:50;8.90;99.90
1578;DHT22;57623;53.608;10.004;2024-02-04T13:09:19;8.90;99.90
1578;DHT22;57623;53.608;10.004;2024-02-04T13:11:48;8.90;99.90
1578;DHT22;57623;53.608;10.004;2024-02-04T13:14:17;8.90;99.90
1578;DHT22;57623;53.608;10.004;2024-02-04T13:16:45;8.90;99.90
1578;DHT22;57623;53.608;10.004;2024-02-04T13:19:15;8.90;99.90
1578;DHT22;57623;53.608;10.004;2024-02-04T13:21:43;9.00;99.90
1578;DHT22;57623;53.608;10.004;2024-02-04T13:24:11;9.00;99.90
1578;DHT22;57623;53.608;10.004;2024-02-04T13:26:39;9.00;99.90
1578;DHT22;57623;53.608;10.004;2024-02-04T13:29:08;9.00;99.90
1578;DHT22;57623;53.608;10.004;2024-02-04T13:31:38;8.90;99.90
1578;DHT22;57623;53.608;10.004;2024-02-04T13:34:06;8.90;99.90
1578;DHT22;57623;53.608;10.004;2024-02-04T13:36:34;8.90;99.90
1578;DHT22;57623;53.608;10.004;2024-02-04T13:39:02;8.90;99.90
1578;DHT22;57623;53.608;10.004;2024-02-04T13:41:32;8.90;99.90
1578;DHT22;57623;53.608;10.004;2024-02-04T13:44:00;8.90;99.90
1578;DHT22;57623;53.608;10.004;2024-02-04T13:46:28;8.80;99.90
1578;DHT22;57623;53.608;10.004;2024-02-04T13:48:57;8.80;99.90
1578;DHT22;57623;53.608;10.004;2024-02-04T13:51:25;8.80;99.90
1578;DHT22;57623;53.608;10.004;2024-02-04T13:54:09;8.80;99.90
1578;DHT22;57623;53.608;10.004;2024-02-04T13:56:37;8.80;99.90
1578;DHT22;57623;53.608;10.004;2024-02-04T13:59:05;8.90;99.90
1578;DHT22;57623;53.608;10.004;2024-02-04T14:01:34;8.90;99.90
1578;DHT22;57623;53.608;10.004;2024-02-04T14:04:03;8.80;99.90
1578;DHT22;57623;53.608;10.004;2024-02-04T14:06:32;8.80;99.90
1578;DHT22;57623;53.608;10.004;2024-02-04T14:09:00;8.80;99.90
1578;DHT22;57623;53.608;10.004;2024-02-04T14:11:28;8.80;99.90
1578;DHT22;57623;53.608;10.004;2024-02-04T14:13:56;8.80;99.90
1578;DHT22;57623;53.608;10.004;2024-02-04T14:16:24;8.70;99.90
1578;DHT22;57623;53.608;10.004;2024-02-04T14:18:52;8.70;99.90
1578;DHT22;57623;53.608;10.004;2024-02-04T14:21:26;8.70;99.90
1578;DHT22;57623;53.608;10.004;2024-02-04T14:23:54;8.70;99.90
1578;DHT22;57623;53.608;10.004;2024-02-04T14:26:22;8.70;99.90
1578;DHT22;57623;53.608;10.004;2024-02-04T14:28:50;8.70;99.90
1578;DHT22;57623;53.608;10.004;2024-02-04T14:31:18;8.60;99.90
1578;DHT22;57623;53.608;10.004;2024-02-04T14:33:48;8.60;99.90
1578;DHT22;57623;53.608;10.004;2024-02-04T14:36:17;8.60;99.90
1578;DHT22;57623;53.608;10.004;2024-02-04T14:38:47;8.60;99.90
1578;DHT22;57623;53.608;10.004;2024-02-04T14:41:15;8.70;99.90
1578;DHT22;57623;53.608;10.004;2024-02-04T14:43:43;8.70;99.90
1578;DHT22;57623;53.608;10.004;2024-02-04T14:46:11;8.70;99.90
1578;DHT22;57623;53.608;10.004;2024-02-04T14:48:40;8.60;99.90
1578;DHT22;57623;53.608;10.004;2024-02-04T14:51:09;8.60;99.90
1578;DHT22;57623;53.608;10.004;2024-02-04T14:53:38;8.60;99.90
1578;DHT22;57623;53.608;10.004;2024-02-04T14:56:07;8.60;99.90
1578;DHT22;57623;53.608;10.004;2024-02-04T14:58:36;8.50;99.90
1578;DHT22;57623;53.608;10.004;2024-02-04T15:01:04;8.50;99.90
1578;DHT22;57623;53.608;10.004;2024-02-04T15:03:33;8.60;99.90
1578;DHT22;57623;53.608;10.004;2024-02-04T15:06:01;8.50;99.90
1578;DHT22;57623;53.608;10.004;2024-02-04T15:08:31;8.60;99.90
1578;DHT22;57623;53.608;10.004;2024-02-04T15:10:59;8.50;99.90
1578;DHT22;57623;53.608;10.004;2024-02-04T15:13:29;8.50;99.90
1578;DHT22;57623;53.608;10.004;2024-02-04T15:16:01;8.60;99.90
1578;DHT22;57623;53.608;10.004;2024-02-04T15:18:29;8.60;99.90
1578;DHT22;57623;53.608;10.004;2024-02-04T15:20:59;8.60;99.90
1578;DHT22;57623;53.608;10.004;2024-02-04T15:23:27;8.60;99.90
1578;DHT22;57623;53.608;10.004;2024-02-04T15:25:56;8.60;99.90
1578;DHT22;57623;53.608;10.004;2024-02-04T15:28:24;8.50;99.90
1578;DHT22;57623;53.608;10.004;2024-02-04T15:30:55;8.50;99.90
1578;DHT22;57623;53.608;10.004;2024-02-04T15:33:24;8.50;99.90
1578;DHT22;57623;53.608;10.004;2024-02-04T15:35:55;8.40;99.90
1578;DHT22;57623;53.608;10.004;2024-02-04T15:38:23;8.40;99.90
1578;DHT22;57623;53.608;10.004;2024-02-04T15:40:51;8.40;99.90
1578;DHT22;57623;53.608;10.004;2024-02-04T15:43:19;8.30;99.90
1578;DHT22;57623;53.608;10.004;2024-02-04T15:45:49;8.30;99.90
1578;DHT22;57623;53.608;10.004;2024-02-04T15:48:22;8.30;99.90
1578;DHT22;57623;53.608;10.004;2024-02-04T15:50:53;8.30;99.90
1578;DHT22;57623;53.608;10.004;2024-02-04T15:53:22;8.30;99.90
1578;DHT22;57623;53.608;10.004;2024-02-04T15:55:50;8.30;99.90
1578;DHT22;57623;53.608;10.004;2024-02-04T15:58:19;8.30;99.90
1578;DHT22;57623;53.608;10.004;2024-02-04T16:00:49;8.30;99.90
1578;DHT22;57623;53.608;10.004;2024-02-04T16:03:19;8.20;99.90
1578;DHT22;57623;53.608;10.004;2024-02-04T16:05:48;8.20;99.90